sensor_id;sensor_type;location;lat;lon;timestamp;P1;durP1;ratioP1;P2;durP2;ratioP2
66380;SDS011;53177;52.648;1.214;2023-02-28T00:00:20;9.57;;;3.85;;
66380;SDS011;53177;52.648;1.214;2023-02-28T00:02:47;9.85;;;3.80;;
66380;SDS011;53177;52.648;1.214;2023-02-28T00:05:14;13.13;;;3.80;;
66380;SDS011;53177;52.648;1.214;2023-02-28T00:07:41;10.35;;;4.68;;
66380;SDS011;53177;52.648;1.214;2023-02-28T00:10:08;11.03;;;3.80;;
66380;SDS011;53177;52.648;1.214;2023-02-28T00:12:36;14.93;;;3.90;;
66380;SDS011;53177;52.648;1.214;2023-02-28T00:15:09;13.15;;;3.97;;
66380;SDS011;53177;52.648;1.214;2023-02-28T00:17:35;12.15;;;3.88;;
66380;SDS011;53177;52.648;1.214;2023-02-28T00:20:01;9.13;;;4.43;;
66380;SDS011;53177;52.648;1.214;2023-02-28T00:22:29;13.27;;;4.05;;
66380;SDS011;53177;52.648;1.214;2023-02-28T00:24:55;11.57;;;3.47;;
66380;SDS011;53177;52.648;1.214;2023-02-28T00:27:21;9.15;;;2.92;;
66380;SDS011;53177;52.648;1.214;2023-02-28T00:29:46;8.97;;;2.70;;
66380;SDS011;53177;52.648;1.214;2023-02-28T00:32:12;9.37;;;2.90;;
66380;SDS011;53177;52.648;1.214;2023-02-28T00:34:37;9.73;;;2.57;;
66380;SDS011;53177;52.648;1.214;2023-02-28T00:37:06;7.22;;;2.40;;
66380;SDS011;53177;52.648;1.214;2023-02-28T00:39:34;12.32;;;2.65;;
66380;SDS011;53177;52.648;1.214;2023-02-28T00:42:01;7.78;;;2.70;;
66380;SDS011;53177;52.648;1.214;2023-02-28T00:44:27;7.45;;;2.70;;
66380;SDS011;53177;52.648;1.214;2023-02-28T00:46:53;8.15;;;2.58;;
66380;SDS011;53177;52.648;1.214;2023-02-28T00:49:19;9.52;;;2.40;;
66380;SDS011;53177;52.648;1.214;2023-02-28T00:51:45;7.53;;;2.60;;
66380;SDS011;53177;52.648;1.214;2023-02-28T00:54:10;10.03;;;2.47;;
66380;SDS011;53177;52.648;1.214;2023-02-28T00:56:36;8.27;;;2.77;;
66380;SDS011;53177;52.648;1.214;2023-02-28T00:59:01;9.07;;;2.80;;
66380;SDS011;53177;52.648;1.214;2023-02-28T01:01:27;8.10;;;2.47;;
66380;SDS011;53177;52.648;1.214;2023-02-28T01:03:52;7.97;;;2.33;;
66380;SDS011;53177;52.648;1.214;2023-02-28T01:06:17;7.67;;;2.13;;
66380;SDS011;53177;52.648;1.214;2023-02-28T01:08:43;7.63;;;2.10;;
66380;SDS011;53177;52.648;1.214;2023-02-28T01:11:10;8.40;;;2.10;;
66380;SDS011;53177;52.648;1.214;2023-02-28T01:13:36;7.45;;;1.90;;
66380;SDS011;53177;52.648;1.214;2023-02-28T01:16:01;6.43;;;1.80;;
66380;SDS011;53177;52.648;1.214;2023-02-28T01:18:27;7.27;;;1.53;;
66380;SDS011;53177;52.648;1.214;2023-02-28T01:20:53;6.97;;;1.70;;
66380;SDS011;53177;52.648;1.214;2023-02-28T01:23:19;7.93;;;1.73;;
66380;SDS011;53177;52.648;1.214;2023-02-28T01:25:48;6.10;;;1.60;;
66380;SDS011;53177;52.648;1.214;2023-02-28T01:28:14;5.00;;;1.70;;
66380;SDS011;53177;52.648;1.214;2023-02-28T01:30:39;7.25;;;2.20;;
66380;SDS011;53177;52.648;1.214;2023-02-28T01:33:05;6.18;;;2.08;;
66380;SDS011;53177;52.648;1.214;2023-02-28T01:35:34;7.60;;;1.80;;
66380;SDS011;53177;52.648;1.214;2023-02-28T01:38:00;6.22;;;1.70;;
66380;SDS011;53177;52.648;1.214;2023-02-28T01:40:26;8.27;;;1.97;;
66380;SDS011;53177;52.648;1.214;2023-02-28T01:42:52;6.95;;;1.60;;
66380;SDS011;53177;52.648;1.214;2023-02-28T01:45:19;6.50;;;1.60;;
66380;SDS011;53177;52.648;1.214;2023-02-28T01:47:48;7.15;;;1.80;;
66380;SDS011;53177;52.648;1.214;2023-02-28T01:50:18;7.22;;;1.83;;
66380;SDS011;53177;52.648;1.214;2023-02-28T01:52:48;8.57;;;1.90;;
66380;SDS011;53177;52.648;1.214;2023-02-28T01:55:15;6.77;;;1.77;;
66380;SDS011;53177;52.648;1.214;2023-02-28T01:57:45;8.88;;;2.45;;
66380;SDS011;53177;52.648;1.214;2023-02-28T02:00:14;9.27;;;2.58;;
66380;SDS011;53177;52.648;1.214;2023-02-28T02:02:45;8.45;;;3.17;;
66380;SDS011;53177;52.648;1.214;2023-02-28T02:05:15;11.48;;;3.92;;
66380;SDS011;53177;52.648;1.214;2023-02-28T02:07:43;7.67;;;3.70;;
66380;SDS011;53177;52.648;1.214;2023-02-28T02:10:21;9.80;;;4.20;;
66380;SDS011;53177;52.648;1.214;2023-02-28T02:18:13;9.75;;;3.22;;
66380;SDS011;53177;52.648;1.214;2023-02-28T02:21:05;9.00;;;3.20;;
66380;SDS011;53177;52.648;1.214;2023-02-28T02:37:46;6.10;;;2.42;;
66380;SDS011;53177;52.648;1.214;2023-02-28T02:42:51;6.93;;;2.05;;
66380;SDS011;53177;52.648;1.214;2023-02-28T02:47:52;5.23;;;1.80;;
66380;SDS011;53177;52.648;1.214;2023-02-28T02:50:23;5.30;;;1.77;;
66380;SDS011;53177;52.648;1.214;2023-02-28T02:52:56;8.57;;;1.75;;
66380;SDS011;53177;52.648;1.214;2023-02-28T02:55:24;7.88;;;1.40;;
66380;SDS011;53177;52.648;1.214;2023-02-28T02:57:54;5.00;;;1.70;;
66380;SDS011;53177;52.648;1.214;2023-02-28T03:00:30;9.53;;;1.70;;
66380;SDS011;53177;52.648;1.214;2023-02-28T03:03:00;6.85;;;1.77;;
66380;SDS011;53177;52.648;1.214;2023-02-28T03:05:33;4.80;;;1.30;;
66380;SDS011;53177;52.648;1.214;2023-02-28T03:08:04;7.88;;;1.60;;
66380;SDS011;53177;52.648;1.214;2023-02-28T03:10:35;7.00;;;1.67;;
66380;SDS011;53177;52.648;1.214;2023-02-28T03:15:54;5.55;;;1.27;;
66380;SDS011;53177;52.648;1.214;2023-02-28T03:18:47;5.57;;;1.55;;
66380;SDS011;53177;52.648;1.214;2023-02-28T03:24:04;6.47;;;1.87;;
66380;SDS011;53177;52.648;1.214;2023-02-28T03:26:34;4.60;;;1.60;;
66380;SDS011;53177;52.648;1.214;2023-02-28T03:29:05;5.20;;;1.80;;
66380;SDS011;53177;52.648;1.214;2023-02-28T03:31:50;7.20;;;1.92;;
66380;SDS011;53177;52.648;1.214;2023-02-28T03:34:29;6.28;;;1.92;;
66380;SDS011;53177;52.648;1.214;2023-02-28T03:37:00;6.63;;;2.23;;
66380;SDS011;53177;52.648;1.214;2023-02-28T03:39:49;7.80;;;2.20;;
66380;SDS011;53177;52.648;1.214;2023-02-28T03:42:22;6.70;;;2.50;;
66380;SDS011;53177;52.648;1.214;2023-02-28T03:44:52;7.18;;;2.40;;
66380;SDS011;53177;52.648;1.214;2023-02-28T03:47:24;6.95;;;1.83;;
66380;SDS011;53177;52.648;1.214;2023-02-28T03:49:56;6.90;;;1.73;;
66380;SDS011;53177;52.648;1.214;2023-02-28T03:52:33;6.10;;;1.80;;
66380;SDS011;53177;52.648;1.214;2023-02-28T03:55:05;6.30;;;1.85;;
66380;SDS011;53177;52.648;1.214;2023-02-28T03:57:37;6.68;;;2.05;;
66380;SDS011;53177;52.648;1.214;2023-02-28T04:00:17;6.85;;;1.85;;
66380;SDS011;53177;52.648;1.214;2023-02-28T04:02:59;6.30;;;1.73;;
66380;SDS011;53177;52.648;1.214;2023-02-28T04:05:24;9.35;;;1.98;;
66380;SDS011;53177;52.648;1.214;2023-02-28T04:07:51;7.83;;;2.40;;
66380;SDS011;53177;52.648;1.214;2023-02-28T04:10:17;9.70;;;2.10;;
66380;SDS011;53177;52.648;1.214;2023-02-28T04:12:43;7.27;;;2.07;;
66380;SDS011;53177;52.648;1.214;2023-02-28T04:15:09;7.13;;;2.00;;
66380;SDS011;53177;52.648;1.214;2023-02-28T04:17:35;6.70;;;1.95;;
66380;SDS011;53177;52.648;1.214;2023-02-28T04:20:01;5.77;;;1.70;;
66380;SDS011;53177;52.648;1.214;2023-02-28T04:22:28;4.25;;;1.48;;
66380;SDS011;53177;52.648;1.214;2023-02-28T04:24:53;4.60;;;1.63;;
66380;SDS011;53177;52.648;1.214;2023-02-28T04:27:19;5.10;;;1.33;;
66380;SDS011;53177;52.648;1.214;2023-02-28T04:29:45;4.22;;;1.20;;
66380;SDS011;53177;52.648;1.214;2023-02-28T04:32:11;3.90;;;1.20;;
66380;SDS011;53177;52.648;1.214;2023-02-28T04:34:37;4.53;;;1.40;;
66380;SDS011;53177;52.648;1.214;2023-02-28T04:37:02;5.80;;;1.17;;
66380;SDS011;53177;52.648;1.214;2023-02-28T04:39:28;4.30;;;1.10;;
66380;SDS011;53177;52.648;1.214;2023-02-28T04:41:54;5.23;;;1.30;;
66380;SDS011;53177;52.648;1.214;2023-02-28T04:44:20;4.45;;;1.27;;
66380;SDS011;53177;52.648;1.214;2023-02-28T04:46:47;6.82;;;1.60;;
66380;SDS011;53177;52.648;1.214;2023-02-28T04:49:12;5.93;;;1.60;;
66380;SDS011;53177;52.648;1.214;2023-02-28T04:51:38;4.70;;;1.73;;
66380;SDS011;53177;52.648;1.214;2023-02-28T04:54:04;6.15;;;1.52;;
66380;SDS011;53177;52.648;1.214;2023-02-28T04:56:29;5.20;;;1.20;;
66380;SDS011;53177;52.648;1.214;2023-02-28T04:58:55;4.00;;;1.20;;
66380;SDS011;53177;52.648;1.214;2023-02-28T05:01:22;5.03;;;1.17;;
66380;SDS011;53177;52.648;1.214;2023-02-28T05:03:50;3.90;;;1.20;;
66380;SDS011;53177;52.648;1.214;2023-02-28T05:06:16;4.30;;;1.20;;
66380;SDS011;53177;52.648;1.214;2023-02-28T05:08:42;4.20;;;1.20;;
66380;SDS011;53177;52.648;1.214;2023-02-28T05:11:12;3.80;;;1.00;;
66380;SDS011;53177;52.648;1.214;2023-02-28T05:13:40;6.90;;;1.33;;
66380;SDS011;53177;52.648;1.214;2023-02-28T05:16:05;4.20;;;1.10;;
66380;SDS011;53177;52.648;1.214;2023-02-28T05:18:31;5.63;;;1.00;;
66380;SDS011;53177;52.648;1.214;2023-02-28T05:20:56;3.50;;;0.90;;
66380;SDS011;53177;52.648;1.214;2023-02-28T05:23:21;5.43;;;1.10;;
66380;SDS011;53177;52.648;1.214;2023-02-28T05:25:48;3.70;;;1.00;;
66380;SDS011;53177;52.648;1.214;2023-02-28T05:28:13;3.85;;;0.90;;
66380;SDS011;53177;52.648;1.214;2023-02-28T05:30:39;3.73;;;0.90;;
66380;SDS011;53177;52.648;1.214;2023-02-28T05:33:04;5.80;;;0.93;;
66380;SDS011;53177;52.648;1.214;2023-02-28T05:35:31;4.18;;;1.00;;
66380;SDS011;53177;52.648;1.214;2023-02-28T05:37:59;3.50;;;0.90;;
66380;SDS011;53177;52.648;1.214;2023-02-28T05:40:24;3.88;;;1.13;;
66380;SDS011;53177;52.648;1.214;2023-02-28T05:42:50;5.45;;;1.10;;
66380;SDS011;53177;52.648;1.214;2023-02-28T05:45:16;5.03;;;1.40;;
66380;SDS011;53177;52.648;1.214;2023-02-28T05:47:42;4.45;;;1.10;;
66380;SDS011;53177;52.648;1.214;2023-02-28T05:50:08;5.40;;;1.50;;
66380;SDS011;53177;52.648;1.214;2023-02-28T05:52:35;4.95;;;1.50;;
66380;SDS011;53177;52.648;1.214;2023-02-28T05:55:01;6.10;;;1.80;;
66380;SDS011;53177;52.648;1.214;2023-02-28T05:57:26;5.93;;;1.80;;
66380;SDS011;53177;52.648;1.214;2023-02-28T05:59:51;5.73;;;1.70;;
66380;SDS011;53177;52.648;1.214;2023-02-28T06:02:17;6.10;;;1.70;;
66380;SDS011;53177;52.648;1.214;2023-02-28T06:04:43;5.88;;;1.60;;
66380;SDS011;53177;52.648;1.214;2023-02-28T06:07:09;7.32;;;2.00;;
66380;SDS011;53177;52.648;1.214;2023-02-28T06:09:35;5.53;;;2.10;;
66380;SDS011;53177;52.648;1.214;2023-02-28T06:12:01;5.00;;;1.58;;
66380;SDS011;53177;52.648;1.214;2023-02-28T06:14:30;6.95;;;2.10;;
66380;SDS011;53177;52.648;1.214;2023-02-28T06:16:58;7.60;;;2.10;;
66380;SDS011;53177;52.648;1.214;2023-02-28T06:19:31;5.43;;;2.30;;
66380;SDS011;53177;52.648;1.214;2023-02-28T06:22:04;6.57;;;2.20;;
66380;SDS011;53177;52.648;1.214;2023-02-28T06:24:32;5.97;;;2.00;;
66380;SDS011;53177;52.648;1.214;2023-02-28T06:27:01;5.78;;;2.00;;
66380;SDS011;53177;52.648;1.214;2023-02-28T06:29:31;6.67;;;2.00;;
66380;SDS011;53177;52.648;1.214;2023-02-28T06:32:01;5.43;;;1.85;;
66380;SDS011;53177;52.648;1.214;2023-02-28T06:34:33;6.78;;;1.70;;
66380;SDS011;53177;52.648;1.214;2023-02-28T06:37:02;5.30;;;1.60;;
66380;SDS011;53177;52.648;1.214;2023-02-28T06:39:31;4.68;;;1.45;;
66380;SDS011;53177;52.648;1.214;2023-02-28T06:42:02;5.50;;;1.80;;
66380;SDS011;53177;52.648;1.214;2023-02-28T06:44:28;5.47;;;1.30;;
66380;SDS011;53177;52.648;1.214;2023-02-28T06:46:59;5.45;;;1.50;;
66380;SDS011;53177;52.648;1.214;2023-02-28T06:49:27;6.30;;;1.48;;
66380;SDS011;53177;52.648;1.214;2023-02-28T06:52:01;6.33;;;1.60;;
66380;SDS011;53177;52.648;1.214;2023-02-28T06:54:28;3.80;;;1.30;;
66380;SDS011;53177;52.648;1.214;2023-02-28T06:56:53;5.17;;;1.50;;
66380;SDS011;53177;52.648;1.214;2023-02-28T06:59:21;4.80;;;1.33;;
66380;SDS011;53177;52.648;1.214;2023-02-28T07:01:47;7.03;;;1.50;;
66380;SDS011;53177;52.648;1.214;2023-02-28T07:04:12;6.97;;;1.40;;
66380;SDS011;53177;52.648;1.214;2023-02-28T07:06:38;4.90;;;1.50;;
66380;SDS011;53177;52.648;1.214;2023-02-28T07:09:03;6.03;;;1.53;;
66380;SDS011;53177;52.648;1.214;2023-02-28T07:11:29;5.90;;;1.80;;
66380;SDS011;53177;52.648;1.214;2023-02-28T07:13:55;5.87;;;1.50;;
66380;SDS011;53177;52.648;1.214;2023-02-28T07:16:21;6.40;;;1.90;;
66380;SDS011;53177;52.648;1.214;2023-02-28T07:18:48;5.88;;;1.55;;
66380;SDS011;53177;52.648;1.214;2023-02-28T07:21:13;6.68;;;1.77;;
66380;SDS011;53177;52.648;1.214;2023-02-28T07:23:40;6.33;;;1.70;;
66380;SDS011;53177;52.648;1.214;2023-02-28T07:26:06;6.47;;;1.80;;
66380;SDS011;53177;52.648;1.214;2023-02-28T07:28:36;5.57;;;1.75;;
66380;SDS011;53177;52.648;1.214;2023-02-28T07:31:05;6.33;;;1.70;;
66380;SDS011;53177;52.648;1.214;2023-02-28T07:33:31;5.50;;;1.48;;
66380;SDS011;53177;52.648;1.214;2023-02-28T07:36:03;6.60;;;1.67;;
66380;SDS011;53177;52.648;1.214;2023-02-28T07:38:33;5.72;;;1.75;;
66380;SDS011;53177;52.648;1.214;2023-02-28T07:41:02;7.82;;;1.77;;
66380;SDS011;53177;52.648;1.214;2023-02-28T07:43:31;5.28;;;1.75;;
66380;SDS011;53177;52.648;1.214;2023-02-28T07:46:11;5.03;;;1.70;;
66380;SDS011;53177;52.648;1.214;2023-02-28T07:48:39;6.20;;;1.65;;
66380;SDS011;53177;52.648;1.214;2023-02-28T07:51:05;4.45;;;1.52;;
66380;SDS011;53177;52.648;1.214;2023-02-28T07:53:31;6.50;;;1.70;;
66380;SDS011;53177;52.648;1.214;2023-02-28T07:55:58;4.67;;;1.57;;
66380;SDS011;53177;52.648;1.214;2023-02-28T07:58:25;6.38;;;1.88;;
66380;SDS011;53177;52.648;1.214;2023-02-28T08:00:51;6.05;;;1.75;;
66380;SDS011;53177;52.648;1.214;2023-02-28T08:03:17;5.63;;;1.97;;
66380;SDS011;53177;52.648;1.214;2023-02-28T08:05:44;6.88;;;2.00;;
66380;SDS011;53177;52.648;1.214;2023-02-28T08:08:09;5.67;;;1.93;;
66380;SDS011;53177;52.648;1.214;2023-02-28T08:10:35;5.40;;;1.88;;
66380;SDS011;53177;52.648;1.214;2023-02-28T08:13:00;5.65;;;1.60;;
66380;SDS011;53177;52.648;1.214;2023-02-28T08:15:26;4.70;;;1.40;;
66380;SDS011;53177;52.648;1.214;2023-02-28T08:17:51;6.82;;;1.25;;
66380;SDS011;53177;52.648;1.214;2023-02-28T08:20:17;4.40;;;1.30;;
66380;SDS011;53177;52.648;1.214;2023-02-28T08:22:44;5.22;;;1.40;;
66380;SDS011;53177;52.648;1.214;2023-02-28T08:25:09;9.10;;;1.30;;
66380;SDS011;53177;52.648;1.214;2023-02-28T08:27:35;5.03;;;1.40;;
66380;SDS011;53177;52.648;1.214;2023-02-28T08:30:00;5.97;;;1.40;;
66380;SDS011;53177;52.648;1.214;2023-02-28T08:32:26;5.43;;;1.40;;
66380;SDS011;53177;52.648;1.214;2023-02-28T08:34:51;4.53;;;1.47;;
66380;SDS011;53177;52.648;1.214;2023-02-28T08:37:17;6.00;;;1.30;;
66380;SDS011;53177;52.648;1.214;2023-02-28T08:39:42;5.15;;;1.20;;
66380;SDS011;53177;52.648;1.214;2023-02-28T08:42:07;6.33;;;1.20;;
66380;SDS011;53177;52.648;1.214;2023-02-28T08:44:34;5.90;;;1.40;;
66380;SDS011;53177;52.648;1.214;2023-02-28T08:46:59;4.07;;;1.38;;
66380;SDS011;53177;52.648;1.214;2023-02-28T08:49:25;4.70;;;0.93;;
66380;SDS011;53177;52.648;1.214;2023-02-28T08:51:51;5.17;;;1.43;;
66380;SDS011;53177;52.648;1.214;2023-02-28T08:54:17;4.38;;;1.20;;
66380;SDS011;53177;52.648;1.214;2023-02-28T08:56:44;6.05;;;1.70;;
66380;SDS011;53177;52.648;1.214;2023-02-28T08:59:12;5.40;;;1.30;;
66380;SDS011;53177;52.648;1.214;2023-02-28T09:01:37;4.87;;;1.20;;
66380;SDS011;53177;52.648;1.214;2023-02-28T09:04:03;4.90;;;1.10;;
66380;SDS011;53177;52.648;1.214;2023-02-28T09:06:29;3.95;;;1.10;;
66380;SDS011;53177;52.648;1.214;2023-02-28T09:08:57;3.97;;;0.93;;
66380;SDS011;53177;52.648;1.214;2023-02-28T09:11:24;3.90;;;1.00;;
66380;SDS011;53177;52.648;1.214;2023-02-28T09:13:53;3.92;;;0.88;;
66380;SDS011;53177;52.648;1.214;2023-02-28T09:16:20;4.68;;;1.10;;
66380;SDS011;53177;52.648;1.214;2023-02-28T09:18:46;4.33;;;0.87;;
66380;SDS011;53177;52.648;1.214;2023-02-28T09:21:12;5.90;;;0.90;;
66380;SDS011;53177;52.648;1.214;2023-02-28T09:23:43;6.13;;;1.17;;
66380;SDS011;53177;52.648;1.214;2023-02-28T09:26:20;3.70;;;0.85;;
66380;SDS011;53177;52.648;1.214;2023-02-28T09:28:49;5.05;;;1.00;;
66380;SDS011;53177;52.648;1.214;2023-02-28T09:31:20;3.40;;;0.70;;
66380;SDS011;53177;52.648;1.214;2023-02-28T09:33:51;6.87;;;0.90;;
66380;SDS011;53177;52.648;1.214;2023-02-28T09:36:18;4.30;;;0.95;;
66380;SDS011;53177;52.648;1.214;2023-02-28T09:38:44;3.25;;;0.75;;
66380;SDS011;53177;52.648;1.214;2023-02-28T09:41:13;3.65;;;0.73;;
66380;SDS011;53177;52.648;1.214;2023-02-28T09:43:40;2.83;;;0.68;;
66380;SDS011;53177;52.648;1.214;2023-02-28T09:49:14;2.90;;;0.60;;
66380;SDS011;53177;52.648;1.214;2023-02-28T09:54:15;3.42;;;0.90;;
66380;SDS011;53177;52.648;1.214;2023-02-28T09:56:48;4.20;;;0.80;;
66380;SDS011;53177;52.648;1.214;2023-02-28T10:07:10;4.32;;;0.80;;
66380;SDS011;53177;52.648;1.214;2023-02-28T10:09:42;3.42;;;0.93;;
66380;SDS011;53177;52.648;1.214;2023-02-28T10:12:10;4.57;;;0.77;;
66380;SDS011;53177;52.648;1.214;2023-02-28T10:14:38;3.97;;;1.20;;
66380;SDS011;53177;52.648;1.214;2023-02-28T10:17:14;4.90;;;0.73;;
66380;SDS011;53177;52.648;1.214;2023-02-28T10:22:22;5.55;;;0.77;;
66380;SDS011;53177;52.648;1.214;2023-02-28T10:24:53;2.30;;;0.50;;
66380;SDS011;53177;52.648;1.214;2023-02-28T10:27:31;5.25;;;0.80;;
66380;SDS011;53177;52.648;1.214;2023-02-28T10:30:01;2.60;;;0.50;;
66380;SDS011;53177;52.648;1.214;2023-02-28T10:32:31;2.25;;;0.40;;
66380;SDS011;53177;52.648;1.214;2023-02-28T10:35:21;2.38;;;0.38;;
66380;SDS011;53177;52.648;1.214;2023-02-28T10:37:50;1.80;;;0.30;;
66380;SDS011;53177;52.648;1.214;2023-02-28T10:42:58;2.07;;;0.40;;
66380;SDS011;53177;52.648;1.214;2023-02-28T10:45:28;2.92;;;0.50;;
66380;SDS011;53177;52.648;1.214;2023-02-28T10:48:23;4.00;;;0.50;;
66380;SDS011;53177;52.648;1.214;2023-02-28T10:50:54;2.90;;;0.60;;
66380;SDS011;53177;52.648;1.214;2023-02-28T10:53:25;3.78;;;0.80;;
66380;SDS011;53177;52.648;1.214;2023-02-28T11:01:34;2.97;;;0.60;;
66380;SDS011;53177;52.648;1.214;2023-02-28T11:04:03;3.47;;;0.60;;
66380;SDS011;53177;52.648;1.214;2023-02-28T11:06:43;2.90;;;0.60;;
66380;SDS011;53177;52.648;1.214;2023-02-28T11:09:27;2.43;;;0.60;;
66380;SDS011;53177;52.648;1.214;2023-02-28T11:11:57;5.13;;;0.70;;
66380;SDS011;53177;52.648;1.214;2023-02-28T11:14:30;3.63;;;0.60;;
66380;SDS011;53177;52.648;1.214;2023-02-28T11:17:00;3.50;;;0.63;;
66380;SDS011;53177;52.648;1.214;2023-02-28T11:19:39;2.67;;;0.60;;
66380;SDS011;53177;52.648;1.214;2023-02-28T11:22:10;2.70;;;0.60;;
66380;SDS011;53177;52.648;1.214;2023-02-28T11:24:42;3.50;;;0.55;;
66380;SDS011;53177;52.648;1.214;2023-02-28T11:29:58;3.78;;;0.70;;
66380;SDS011;53177;52.648;1.214;2023-02-28T11:32:28;2.70;;;0.50;;
66380;SDS011;53177;52.648;1.214;2023-02-28T11:35:03;2.40;;;0.50;;
66380;SDS011;53177;52.648;1.214;2023-02-28T11:37:42;2.70;;;0.52;;
66380;SDS011;53177;52.648;1.214;2023-02-28T11:40:16;3.45;;;0.45;;
66380;SDS011;53177;52.648;1.214;2023-02-28T11:42:50;3.58;;;0.70;;
66380;SDS011;53177;52.648;1.214;2023-02-28T11:48:17;2.80;;;0.40;;
66380;SDS011;53177;52.648;1.214;2023-02-28T12:06:55;3.40;;;0.70;;
66380;SDS011;53177;52.648;1.214;2023-02-28T12:11:55;2.07;;;0.40;;
66380;SDS011;53177;52.648;1.214;2023-02-28T12:22:27;2.85;;;0.75;;
66380;SDS011;53177;52.648;1.214;2023-02-28T12:27:33;3.00;;;0.50;;
66380;SDS011;53177;52.648;1.214;2023-02-28T12:32:33;4.75;;;0.90;;
66380;SDS011;53177;52.648;1.214;2023-02-28T12:37:36;3.17;;;0.50;;
66380;SDS011;53177;52.648;1.214;2023-02-28T12:40:16;2.57;;;0.40;;
66380;SDS011;53177;52.648;1.214;2023-02-28T12:42:49;3.20;;;0.50;;
66380;SDS011;53177;52.648;1.214;2023-02-28T12:48:04;2.72;;;0.70;;
66380;SDS011;53177;52.648;1.214;2023-02-28T12:50:33;3.33;;;0.70;;
66380;SDS011;53177;52.648;1.214;2023-02-28T12:53:06;3.07;;;0.63;;
66380;SDS011;53177;52.648;1.214;2023-02-28T12:58:51;3.67;;;0.50;;
66380;SDS011;53177;52.648;1.214;2023-02-28T13:09:23;4.15;;;1.15;;
66380;SDS011;53177;52.648;1.214;2023-02-28T13:11:49;4.97;;;1.17;;
66380;SDS011;53177;52.648;1.214;2023-02-28T13:19:35;3.15;;;0.73;;
66380;SDS011;53177;52.648;1.214;2023-02-28T13:22:04;5.00;;;1.05;;
66380;SDS011;53177;52.648;1.214;2023-02-28T13:29:28;2.63;;;0.60;;
66380;SDS011;53177;52.648;1.214;2023-02-28T13:35:15;3.45;;;0.50;;
66380;SDS011;53177;52.648;1.214;2023-02-28T13:55:24;3.10;;;0.60;;
66380;SDS011;53177;52.648;1.214;2023-02-28T14:06:35;2.20;;;0.50;;
66380;SDS011;53177;52.648;1.214;2023-02-28T14:09:06;4.15;;;0.52;;
66380;SDS011;53177;52.648;1.214;2023-02-28T14:11:46;2.17;;;0.50;;
66380;SDS011;53177;52.648;1.214;2023-02-28T14:16:59;2.47;;;0.40;;
66380;SDS011;53177;52.648;1.214;2023-02-28T14:19:25;3.20;;;0.50;;
66380;SDS011;53177;52.648;1.214;2023-02-28T14:22:10;2.75;;;0.50;;
66380;SDS011;53177;52.648;1.214;2023-02-28T14:30:37;2.22;;;0.40;;
66380;SDS011;53177;52.648;1.214;2023-02-28T14:38:29;3.70;;;0.60;;
66380;SDS011;53177;52.648;1.214;2023-02-28T14:41:00;3.30;;;0.40;;
66380;SDS011;53177;52.648;1.214;2023-02-28T14:43:29;2.40;;;0.50;;
66380;SDS011;53177;52.648;1.214;2023-02-28T14:46:02;2.75;;;0.52;;
66380;SDS011;53177;52.648;1.214;2023-02-28T14:48:30;2.92;;;0.60;;
66380;SDS011;53177;52.648;1.214;2023-02-28T14:50:59;4.35;;;0.85;;
66380;SDS011;53177;52.648;1.214;2023-02-28T14:53:26;2.65;;;0.65;;
66380;SDS011;53177;52.648;1.214;2023-02-28T14:55:54;3.50;;;0.70;;
66380;SDS011;53177;52.648;1.214;2023-02-28T15:00:51;3.83;;;0.73;;
66380;SDS011;53177;52.648;1.214;2023-02-28T15:05:59;3.05;;;0.70;;
66380;SDS011;53177;52.648;1.214;2023-02-28T15:08:29;3.53;;;0.82;;
66380;SDS011;53177;52.648;1.214;2023-02-28T15:11:12;4.70;;;0.80;;
66380;SDS011;53177;52.648;1.214;2023-02-28T15:18:46;2.70;;;0.60;;
66380;SDS011;53177;52.648;1.214;2023-02-28T15:21:27;2.03;;;0.40;;
66380;SDS011;53177;52.648;1.214;2023-02-28T15:23:57;3.80;;;0.70;;
66380;SDS011;53177;52.648;1.214;2023-02-28T15:26:30;2.83;;;0.60;;
66380;SDS011;53177;52.648;1.214;2023-02-28T15:29:05;5.30;;;1.35;;
66380;SDS011;53177;52.648;1.214;2023-02-28T15:31:34;3.13;;;0.70;;
66380;SDS011;53177;52.648;1.214;2023-02-28T15:34:06;3.47;;;0.63;;
66380;SDS011;53177;52.648;1.214;2023-02-28T15:36:41;2.38;;;0.60;;
66380;SDS011;53177;52.648;1.214;2023-02-28T15:39:24;2.60;;;0.50;;
66380;SDS011;53177;52.648;1.214;2023-02-28T15:42:10;3.55;;;0.70;;
66380;SDS011;53177;52.648;1.214;2023-02-28T15:44:37;3.07;;;0.60;;
66380;SDS011;53177;52.648;1.214;2023-02-28T15:47:12;3.33;;;0.63;;
66380;SDS011;53177;52.648;1.214;2023-02-28T15:49:54;3.00;;;0.50;;
66380;SDS011;53177;52.648;1.214;2023-02-28T15:54:58;3.08;;;0.50;;
66380;SDS011;53177;52.648;1.214;2023-02-28T15:57:32;3.22;;;0.60;;
66380;SDS011;53177;52.648;1.214;2023-02-28T15:59:59;4.20;;;0.60;;
66380;SDS011;53177;52.648;1.214;2023-02-28T16:02:34;4.13;;;0.60;;
66380;SDS011;53177;52.648;1.214;2023-02-28T16:07:39;3.07;;;0.73;;
66380;SDS011;53177;52.648;1.214;2023-02-28T16:10:06;4.22;;;0.80;;
66380;SDS011;53177;52.648;1.214;2023-02-28T16:12:34;4.75;;;0.55;;
66380;SDS011;53177;52.648;1.214;2023-02-28T16:15:02;4.53;;;0.50;;
66380;SDS011;53177;52.648;1.214;2023-02-28T16:17:34;3.30;;;0.60;;
66380;SDS011;53177;52.648;1.214;2023-02-28T16:20:05;4.70;;;0.43;;
66380;SDS011;53177;52.648;1.214;2023-02-28T16:22:52;2.50;;;0.50;;
66380;SDS011;53177;52.648;1.214;2023-02-28T16:25:19;3.63;;;0.63;;
66380;SDS011;53177;52.648;1.214;2023-02-28T16:27:48;7.10;;;2.23;;
66380;SDS011;53177;52.648;1.214;2023-02-28T16:30:18;5.63;;;1.13;;
66380;SDS011;53177;52.648;1.214;2023-02-28T16:32:47;5.78;;;1.27;;
66380;SDS011;53177;52.648;1.214;2023-02-28T16:35:13;3.75;;;0.93;;
66380;SDS011;53177;52.648;1.214;2023-02-28T16:37:39;3.87;;;0.90;;
66380;SDS011;53177;52.648;1.214;2023-02-28T16:40:06;4.80;;;0.90;;
66380;SDS011;53177;52.648;1.214;2023-02-28T16:42:34;3.42;;;1.02;;
66380;SDS011;53177;52.648;1.214;2023-02-28T16:44:59;3.73;;;0.77;;
66380;SDS011;53177;52.648;1.214;2023-02-28T16:47:25;3.97;;;0.80;;
66380;SDS011;53177;52.648;1.214;2023-02-28T16:49:51;3.85;;;0.77;;
66380;SDS011;53177;52.648;1.214;2023-02-28T16:52:17;3.05;;;0.63;;
66380;SDS011;53177;52.648;1.214;2023-02-28T16:54:43;3.00;;;0.80;;
66380;SDS011;53177;52.648;1.214;2023-02-28T16:57:30;3.13;;;0.60;;
66380;SDS011;53177;52.648;1.214;2023-02-28T16:59:54;5.18;;;0.80;;
66380;SDS011;53177;52.648;1.214;2023-02-28T17:02:19;3.70;;;0.80;;
66380;SDS011;53177;52.648;1.214;2023-02-28T17:04:45;3.95;;;0.73;;
66380;SDS011;53177;52.648;1.214;2023-02-28T17:07:11;3.37;;;0.60;;
66380;SDS011;53177;52.648;1.214;2023-02-28T17:09:38;2.95;;;0.52;;
66380;SDS011;53177;52.648;1.214;2023-02-28T17:12:04;4.10;;;0.80;;
66380;SDS011;53177;52.648;1.214;2023-02-28T17:14:29;4.75;;;1.00;;
66380;SDS011;53177;52.648;1.214;2023-02-28T17:16:55;3.17;;;0.80;;
66380;SDS011;53177;52.648;1.214;2023-02-28T17:19:20;4.60;;;1.17;;
66380;SDS011;53177;52.648;1.214;2023-02-28T17:21:45;3.97;;;0.97;;
66380;SDS011;53177;52.648;1.214;2023-02-28T17:24:11;4.32;;;0.95;;
66380;SDS011;53177;52.648;1.214;2023-02-28T17:26:37;3.50;;;0.90;;
66380;SDS011;53177;52.648;1.214;2023-02-28T17:29:05;4.88;;;1.00;;
66380;SDS011;53177;52.648;1.214;2023-02-28T17:31:38;3.60;;;0.80;;
66380;SDS011;53177;52.648;1.214;2023-02-28T17:34:04;6.43;;;0.93;;
66380;SDS011;53177;52.648;1.214;2023-02-28T17:36:29;4.55;;;0.82;;
66380;SDS011;53177;52.648;1.214;2023-02-28T17:38:55;3.50;;;0.80;;
66380;SDS011;53177;52.648;1.214;2023-02-28T17:41:21;2.50;;;0.57;;
66380;SDS011;53177;52.648;1.214;2023-02-28T17:43:46;4.63;;;0.80;;
66380;SDS011;53177;52.648;1.214;2023-02-28T17:46:16;3.60;;;0.70;;
66380;SDS011;53177;52.648;1.214;2023-02-28T17:48:45;3.10;;;0.70;;
66380;SDS011;53177;52.648;1.214;2023-02-28T17:51:12;3.53;;;1.00;;
66380;SDS011;53177;52.648;1.214;2023-02-28T17:53:38;4.47;;;0.98;;
66380;SDS011;53177;52.648;1.214;2023-02-28T17:56:04;4.60;;;1.10;;